Time;durP1;ratioP1;P1;durP2;ratioP2;P2;SDS_P1;SDS_P2;PMS_P1;PMS_P2;Temp;Humidity;BMP_temperature;BMP_pressure;BME280_temperature;BME280_humidity;BME280_pressure;Samples;Min_cycle;Max_cycle;Signal;HPM_P1;HPM_P2
2023/07/28 00:01:31;;;;;;;2.27;2.10;;;16.70;99.90;;;;;;5065094;28;20177;-74
2023/07/28 00:03:57;;;;;;;2.50;2.30;;;16.70;99.90;;;;;;5065134;28;20208;-74
2023/07/28 00:06:23;;;;;;;2.53;2.33;;;16.70;99.90;;;;;;5064938;28;20176;-74
2023/07/28 00:08:49;;;;;;;2.47;2.20;;;16.70;99.90;;;;;;5064247;28;20741;-74
2023/07/28 00:11:16;;;;;;;2.00;1.90;;;16.70;99.90;;;;;;5048360;28;20410;-73
2023/07/28 00:13:42;;;;;;;1.73;1.63;;;16.80;99.90;;;;;;5067822;28;20188;-74
2023/07/28 00:16:09;;;;;;;2.27;2.07;;;16.70;99.90;;;;;;5068796;28;20902;-73
2023/07/28 00:18:35;;;;;;;2.40;2.20;;;16.70;99.90;;;;;;5069513;28;20420;-73
2023/07/28 00:21:01;;;;;;;2.40;2.20;;;16.70;99.90;;;;;;5068086;28;20412;-72
2023/07/28 00:23:28;;;;;;;1.90;1.80;;;16.70;99.90;;;;;;5068425;28;20212;-73
2023/07/28 00:25:53;;;;;;;3.53;2.20;;;16.70;99.90;;;;;;5067757;28;20416;-72
2023/07/28 00:28:19;;;;;;;3.07;2.77;;;16.70;99.90;;;;;;5067392;28;20486;-73
2023/07/28 00:30:48;;;;;;;3.20;2.97;;;16.70;99.90;;;;;;5068744;28;20716;-73
2023/07/28 00:33:13;;;;;;;3.67;3.40;;;16.70;99.90;;;;;;5069750;28;20612;-74
2023/07/28 00:35:39;;;;;;;4.07;3.40;;;16.70;99.90;;;;;;5067934;28;20441;-75
2023/07/28 00:38:05;;;;;;;4.03;3.73;;;16.80;99.90;;;;;;5067713;28;20168;-73
2023/07/28 00:40:30;;;;;;;3.47;3.10;;;16.80;99.90;;;;;;5068560;28;20172;-74
2023/07/28 00:42:56;;;;;;;3.47;3.20;;;16.80;99.90;;;;;;5068655;28;20184;-74
2023/07/28 00:45:22;;;;;;;4.20;3.90;;;16.80;99.90;;;;;;5068490;28;20562;-74
2023/07/28 00:47:47;;;;;;;4.00;3.70;;;16.80;99.90;;;;;;5070323;28;20546;-73
2023/07/28 00:50:13;;;;;;;4.50;4.10;;;16.80;99.90;;;;;;5067954;28;20420;-74
2023/07/28 00:52:39;;;;;;;4.63;4.30;;;16.80;99.90;;;;;;5067454;28;20727;-74
2023/07/28 00:55:06;;;;;;;4.73;4.33;;;16.90;99.90;;;;;;5068368;28;20527;-73
2023/07/28 00:57:36;;;;;;;5.80;5.30;;;16.80;99.90;;;;;;5068680;28;20277;-74
2023/07/28 01:00:02;;;;;;;5.00;4.60;;;16.90;99.90;;;;;;5069236;28;20407;-74
2023/07/28 01:02:27;;;;;;;4.50;4.10;;;16.90;99.90;;;;;;5068414;28;20445;-73
2023/07/28 01:04:53;;;;;;;4.30;4.00;;;16.90;99.90;;;;;;5070852;28;20555;-74
2023/07/28 01:07:52;;;;;;;5.90;4.37;;;16.90;99.90;;;;;;5067794;28;20177;-74
2023/07/28 01:10:31;;;;;;;4.27;3.97;;;16.90;99.90;;;;;;5065661;28;20197;-73
2023/07/28 01:12:57;;;;;;;4.70;4.30;;;16.90;99.90;;;;;;5068200;28;20408;-74
2023/07/28 01:15:22;;;;;;;4.63;4.33;;;16.90;99.90;;;;;;5070771;28;20437;-73
2023/07/28 01:17:48;;;;;;;3.93;3.60;;;17.00;99.90;;;;;;5067117;28;20177;-72
2023/07/28 01:20:14;;;;;;;4.53;3.53;;;17.00;99.90;;;;;;5067948;28;20660;-72
2023/07/28 01:23:05;;;;;;;4.53;3.43;;;17.00;99.90;;;;;;5070966;28;20189;-75
2023/07/28 01:25:33;;;;;;;4.37;3.97;;;17.00;99.90;;;;;;5068249;28;20193;-73
2023/07/28 01:28:00;;;;;;;3.50;3.20;;;17.00;99.90;;;;;;5067213;28;20921;-74
2023/07/28 01:30:27;;;;;;;4.60;3.60;;;17.00;99.90;;;;;;5068751;28;21126;-74
2023/07/28 01:32:57;;;;;;;4.03;3.73;;;17.00;99.90;;;;;;5066569;28;20877;-73
2023/07/28 01:35:23;;;;;;;3.73;3.43;;;17.10;99.90;;;;;;5067037;28;20791;-74
2023/07/28 01:37:50;;;;;;;3.63;3.33;;;17.10;99.90;;;;;;5067574;28;20407;-74
2023/07/28 01:40:20;;;;;;;4.20;3.40;;;17.10;99.90;;;;;;5066921;28;20400;-74
2023/07/28 01:42:46;;;;;;;4.20;3.80;;;17.10;99.90;;;;;;5065561;28;20682;-73
2023/07/28 01:45:11;;;;;;;3.50;3.20;;;17.10;99.90;;;;;;5067333;28;20559;-74
2023/07/28 01:47:37;;;;;;;4.27;3.07;;;17.10;99.90;;;;;;5067972;28;20173;-74
2023/07/28 01:50:03;;;;;;;4.10;3.80;;;17.10;99.90;;;;;;5067172;28;20191;-74
2023/07/28 01:52:29;;;;;;;4.80;3.17;;;17.10;99.90;;;;;;5067037;28;20195;-73
2023/07/28 01:54:54;;;;;;;7.93;3.40;;;17.10;99.90;;;;;;5067616;28;20986;-74
2023/07/28 01:57:20;;;;;;;4.23;3.57;;;17.20;99.90;;;;;;5063454;28;20175;-73
2023/07/28 01:59:45;;;;;;;4.47;3.77;;;17.10;99.90;;;;;;5067198;28;20599;-73
2023/07/28 02:02:12;;;;;;;4.80;4.03;;;17.20;99.90;;;;;;5067395;28;20624;-73
2023/07/28 02:04:37;;;;;;;3.70;3.23;;;17.20;99.90;;;;;;5067197;28;20219;-74
2023/07/28 02:07:03;;;;;;;8.43;3.80;;;17.20;99.90;;;;;;5066869;28;20403;-73
2023/07/28 02:09:29;;;;;;;4.57;4.17;;;17.20;99.90;;;;;;5066676;28;20542;-75
2023/07/28 02:11:54;;;;;;;5.47;4.10;;;17.20;99.90;;;;;;5076607;28;20216;-72
2023/07/28 02:14:20;;;;;;;4.80;3.97;;;17.20;99.90;;;;;;5068760;28;20704;-73
2023/07/28 02:16:45;;;;;;;5.00;4.17;;;17.20;99.90;;;;;;5065885;28;20235;-71
2023/07/28 02:19:11;;;;;;;6.07;4.80;;;17.20;99.90;;;;;;5069407;28;20241;-74
2023/07/28 02:21:36;;;;;;;6.27;4.70;;;17.30;99.90;;;;;;5062455;28;20172;-73
2023/07/28 02:24:02;;;;;;;5.67;5.00;;;17.20;99.90;;;;;;5070499;28;20252;-73
2023/07/28 02:26:28;;;;;;;8.57;5.03;;;17.20;99.90;;;;;;5067250;28;20165;-72
2023/07/28 02:28:53;;;;;;;5.43;4.93;;;17.30;99.90;;;;;;5051317;28;20617;-73
2023/07/28 02:31:19;;;;;;;5.30;4.67;;;17.30;99.90;;;;;;5064255;28;20376;-74
2023/07/28 02:33:45;;;;;;;5.90;5.00;;;17.30;99.90;;;;;;5066791;28;20202;-74
2023/07/28 02:36:10;;;;;;;6.93;5.80;;;17.30;99.90;;;;;;5073098;28;20259;-73
2023/07/28 02:38:36;;;;;;;6.17;4.80;;;17.30;99.90;;;;;;5066757;28;20174;-74
2023/07/28 02:41:03;;;;;;;8.50;5.90;;;17.30;99.90;;;;;;5052454;28;20208;-71
2023/07/28 02:43:29;;;;;;;12.63;5.30;;;17.30;99.90;;;;;;5068622;28;20274;-73
2023/07/28 02:45:56;;;;;;;5.90;5.30;;;17.40;99.90;;;;;;5060578;28;20499;-76
2023/07/28 02:48:22;;;;;;;10.70;5.60;;;17.30;99.90;;;;;;5068207;28;20601;-74
2023/07/28 02:50:50;;;;;;;5.70;5.10;;;17.30;99.90;;;;;;5049871;28;20773;-74
2023/07/28 02:53:15;;;;;;;7.93;6.00;;;17.40;99.90;;;;;;5055285;28;20417;-73
2023/07/28 02:55:45;;;;;;;6.40;5.10;;;17.30;99.90;;;;;;5056333;28;20444;-71
2023/07/28 02:58:12;;;;;;;5.80;5.20;;;17.40;99.90;;;;;;5060129;28;20177;-72
2023/07/28 03:00:38;;;;;;;9.60;5.33;;;17.30;99.90;;;;;;5057898;28;20998;-72
2023/07/28 03:03:05;;;;;;;6.27;5.67;;;17.30;99.90;;;;;;5065285;28;20411;-72
2023/07/28 03:05:33;;;;;;;8.73;6.20;;;17.40;99.90;;;;;;5065113;28;20453;-73
2023/07/28 03:07:59;;;;;;;7.63;6.17;;;17.40;99.90;;;;;;5048147;28;20446;-73
2023/07/28 03:10:25;;;;;;;8.90;6.67;;;17.40;99.90;;;;;;5065888;28;20921;-72
2023/07/28 03:12:50;;;;;;;8.33;6.50;;;17.40;99.90;;;;;;5065467;28;20177;-74
2023/07/28 03:15:16;;;;;;;7.57;5.73;;;17.40;99.90;;;;;;5066637;28;20430;-73
2023/07/28 03:17:42;;;;;;;7.80;6.87;;;17.40;99.90;;;;;;5066099;28;20259;-72
2023/07/28 03:20:08;;;;;;;8.33;6.20;;;17.40;99.90;;;;;;5065967;28;20232;-72
2023/07/28 03:22:33;;;;;;;6.80;5.97;;;17.40;99.90;;;;;;5066154;28;20170;-72
2023/07/28 03:24:59;;;;;;;6.53;5.83;;;17.40;99.90;;;;;;5065784;28;20448;-73
2023/07/28 03:27:25;;;;;;;7.17;6.10;;;17.50;99.90;;;;;;5065435;28;20609;-72
2023/07/28 03:29:51;;;;;;;7.27;6.57;;;17.40;99.90;;;;;;5065286;28;20166;-75
2023/07/28 03:32:16;;;;;;;12.93;7.00;;;17.40;99.90;;;;;;5066208;28;20166;-71
2023/07/28 03:34:42;;;;;;;6.10;5.50;;;17.40;99.90;;;;;;5066544;28;20437;-72
2023/07/28 03:37:08;;;;;;;8.87;7.00;;;17.50;99.90;;;;;;5065663;28;20567;-73
2023/07/28 03:39:34;;;;;;;8.40;6.60;;;17.40;99.90;;;;;;5065657;28;20249;-72
2023/07/28 03:42:00;;;;;;;5.63;5.00;;;17.40;99.90;;;;;;5066719;28;20604;-73
2023/07/28 03:44:25;;;;;;;6.67;5.93;;;17.50;99.90;;;;;;5066069;28;20217;-75
2023/07/28 03:46:51;;;;;;;7.77;6.07;;;17.50;99.90;;;;;;5066686;28;20177;-73
2023/07/28 03:49:16;;;;;;;6.73;5.50;;;17.50;99.90;;;;;;5070645;28;20205;-73
2023/07/28 03:51:42;;;;;;;9.43;6.40;;;17.50;99.90;;;;;;5070119;28;20884;-74
2023/07/28 03:54:08;;;;;;;9.07;8.27;;;17.50;99.90;;;;;;5051472;28;20739;-72
2023/07/28 03:56:34;;;;;;;8.30;7.20;;;17.50;99.90;;;;;;5051520;28;20554;-73
2023/07/28 03:58:59;;;;;;;10.10;6.97;;;17.50;99.90;;;;;;5069365;28;20193;-73
2023/07/28 04:01:25;;;;;;;6.87;6.17;;;17.40;99.90;;;;;;5069363;28;20605;-72
2023/07/28 04:03:50;;;;;;;8.40;6.80;;;17.50;99.90;;;;;;5077279;28;20212;-73
2023/07/28 04:06:16;;;;;;;8.63;6.87;;;17.50;99.90;;;;;;5079831;28;20256;-75
2023/07/28 04:08:42;;;;;;;7.47;6.27;;;17.50;99.90;;;;;;5071273;28;20538;-73
2023/07/28 04:11:07;;;;;;;6.80;5.33;;;17.50;99.90;;;;;;5081430;28;20182;-73
2023/07/28 04:13:34;;;;;;;7.50;6.23;;;17.50;99.90;;;;;;5075962;28;20258;-73
2023/07/28 04:16:00;;;;;;;6.83;6.13;;;17.50;99.90;;;;;;5055041;28;20280;-72
2023/07/28 04:18:25;;;;;;;7.73;6.87;;;17.60;99.90;;;;;;5065570;28;20437;-73
2023/07/28 04:20:51;;;;;;;8.10;7.30;;;17.60;99.90;;;;;;5064687;28;20177;-73
2023/07/28 04:23:17;;;;;;;8.60;6.43;;;17.60;99.90;;;;;;5073025;28;20486;-74
2023/07/28 04:25:42;;;;;;;6.93;5.60;;;17.60;99.90;;;;;;5069626;28;20267;-73
2023/07/28 04:28:08;;;;;;;13.60;6.60;;;17.70;99.90;;;;;;5064360;28;20204;-73
2023/07/28 04:30:34;;;;;;;8.57;5.70;;;17.70;99.90;;;;;;5068828;28;20192;-73
2023/07/28 04:33:00;;;;;;;7.83;6.20;;;17.70;99.90;;;;;;5075095;28;20779;-72
2023/07/28 04:35:25;;;;;;;7.47;6.77;;;17.70;99.90;;;;;;5071764;28;20621;-73
2023/07/28 04:37:51;;;;;;;6.67;6.07;;;17.70;99.90;;;;;;5067606;28;20206;-73
2023/07/28 04:40:17;;;;;;;8.30;6.90;;;17.80;99.90;;;;;;5070498;28;20201;-73
2023/07/28 04:42:42;;;;;;;8.83;6.33;;;17.80;99.90;;;;;;5064570;28;20171;-73
2023/07/28 04:45:08;;;;;;;7.30;6.60;;;17.80;99.90;;;;;;5071324;28;20198;-73
2023/07/28 04:47:34;;;;;;;8.73;5.83;;;17.80;99.90;;;;;;5068800;28;20626;-73
2023/07/28 04:50:00;;;;;;;7.13;6.43;;;17.80;99.90;;;;;;5070432;28;20499;-73
2023/07/28 04:52:25;;;;;;;10.00;7.07;;;17.80;99.90;;;;;;5068312;28;20711;-73
2023/07/28 04:54:51;;;;;;;8.47;6.53;;;17.80;99.90;;;;;;5067073;28;20297;-73
2023/07/28 04:57:18;;;;;;;7.03;6.27;;;17.80;99.90;;;;;;5070478;28;20178;-72
2023/07/28 04:59:43;;;;;;;7.60;6.80;;;17.80;99.90;;;;;;5064180;28;20170;-73
2023/07/28 05:02:09;;;;;;;7.87;6.30;;;17.80;99.90;;;;;;5071088;28;20409;-73
2023/07/28 05:04:36;;;;;;;8.87;7.37;;;17.90;99.90;;;;;;5045693;28;20698;-72
2023/07/28 05:07:02;;;;;;;7.47;6.50;;;17.80;99.90;;;;;;5070358;28;20172;-74
2023/07/28 05:09:28;;;;;;;7.00;6.30;;;17.90;99.90;;;;;;5066386;28;20428;-73
2023/07/28 05:11:54;;;;;;;7.37;6.67;;;17.80;99.90;;;;;;5073030;28;20561;-74
2023/07/28 05:14:20;;;;;;;7.63;6.93;;;17.90;99.90;;;;;;5067759;28;21031;-74
2023/07/28 05:16:46;;;;;;;7.40;6.33;;;17.90;99.90;;;;;;5065804;28;20468;-74
2023/07/28 05:19:12;;;;;;;6.87;6.27;;;17.90;99.90;;;;;;5065801;28;20518;-74
2023/07/28 05:21:38;;;;;;;6.97;6.37;;;18.00;99.90;;;;;;5069346;28;20508;-73
2023/07/28 05:24:04;;;;;;;7.10;6.07;;;18.10;99.90;;;;;;5065852;28;20779;-73
2023/07/28 05:26:30;;;;;;;5.70;5.20;;;18.10;99.90;;;;;;5068432;28;20163;-74
2023/07/28 05:28:55;;;;;;;6.67;5.70;;;18.10;99.90;;;;;;5066316;28;20404;-71
2023/07/28 05:31:21;;;;;;;8.57;5.93;;;18.10;99.90;;;;;;5065992;28;20203;-73
2023/07/28 05:33:46;;;;;;;7.20;6.50;;;18.20;99.90;;;;;;5064094;28;20221;-73
2023/07/28 05:36:12;;;;;;;6.27;5.77;;;18.20;99.90;;;;;;5061066;28;20180;-74
2023/07/28 05:38:38;;;;;;;5.60;5.10;;;18.20;99.90;;;;;;5068576;28;20175;-73
2023/07/28 05:41:04;;;;;;;6.60;5.93;;;18.10;99.90;;;;;;5047224;28;20656;-73
2023/07/28 05:43:30;;;;;;;6.07;5.43;;;18.20;99.90;;;;;;5056444;28;20194;-71
2023/07/28 05:46:00;;;;;;;6.20;4.87;;;18.30;99.90;;;;;;5069874;28;20493;-72
2023/07/28 05:48:26;;;;;;;5.97;5.37;;;18.40;99.90;;;;;;5064103;28;20414;-73
2023/07/28 05:50:53;;;;;;;7.10;6.37;;;18.50;99.90;;;;;;5059381;28;20410;-74
2023/07/28 05:53:22;;;;;;;6.80;5.83;;;18.50;99.90;;;;;;5062985;28;20444;-74
2023/07/28 05:55:48;;;;;;;6.30;5.70;;;18.40;99.90;;;;;;5064811;28;20413;-74
2023/07/28 05:58:14;;;;;;;6.43;5.03;;;18.50;99.90;;;;;;5046495;28;20417;-74
2023/07/28 06:00:40;;;;;;;5.70;4.97;;;18.40;99.90;;;;;;5070572;28;20410;-75
2023/07/28 06:03:08;;;;;;;5.73;5.23;;;18.40;99.90;;;;;;5063277;28;20289;-74
2023/07/28 06:05:34;;;;;;;5.90;5.27;;;18.30;99.90;;;;;;5062781;28;20483;-74
2023/07/28 06:07:59;;;;;;;5.53;5.03;;;18.20;99.90;;;;;;5065670;28;20913;-74
2023/07/28 06:10:26;;;;;;;6.40;4.67;;;18.20;99.90;;;;;;5077275;28;20195;-74
2023/07/28 06:12:52;;;;;;;5.00;4.53;;;18.20;99.90;;;;;;5071380;28;20504;-74
2023/07/28 06:15:17;;;;;;;5.80;5.30;;;18.20;99.90;;;;;;5066155;28;20197;-74
2023/07/28 06:17:43;;;;;;;6.60;6.00;;;18.20;99.90;;;;;;5070013;28;20195;-74
2023/07/28 06:20:09;;;;;;;6.47;5.87;;;18.20;99.90;;;;;;5065209;28;20270;-74
2023/07/28 06:22:35;;;;;;;5.30;4.80;;;18.10;99.90;;;;;;5070254;28;20187;-74
2023/07/28 06:25:01;;;;;;;6.07;5.47;;;18.20;99.90;;;;;;5064428;28;20615;-73
2023/07/28 06:27:27;;;;;;;7.47;5.67;;;18.30;99.90;;;;;;5066125;28;20172;-74
2023/07/28 06:29:52;;;;;;;6.87;5.00;;;18.20;99.90;;;;;;5064286;28;20222;-74
2023/07/28 06:32:20;;;;;;;5.83;5.30;;;18.10;99.90;;;;;;5068363;28;20414;-74
2023/07/28 06:34:49;;;;;;;5.33;4.93;;;18.20;99.90;;;;;;5070062;28;20198;-74
2023/07/28 06:37:14;;;;;;;5.80;5.30;;;18.20;99.90;;;;;;5064473;28;20417;-74
2023/07/28 06:39:40;;;;;;;5.93;5.33;;;18.20;99.90;;;;;;5068657;28;20493;-74
2023/07/28 06:42:07;;;;;;;6.03;5.43;;;18.30;99.90;;;;;;5064474;28;20494;-74
2023/07/28 06:44:33;;;;;;;5.60;5.10;;;18.40;99.90;;;;;;5058665;28;20504;-74
2023/07/28 06:46:58;;;;;;;5.33;4.80;;;18.30;99.90;;;;;;5070186;28;20920;-73
2023/07/28 06:49:24;;;;;;;5.80;4.60;;;18.40;99.90;;;;;;5058015;28;20241;-73
2023/07/28 06:51:49;;;;;;;6.70;5.67;;;18.40;99.90;;;;;;5070219;28;20180;-74
2023/07/28 06:54:15;;;;;;;5.23;4.77;;;18.50;99.90;;;;;;5045932;28;20195;-74
2023/07/28 06:56:41;;;;;;;5.43;4.93;;;18.60;99.90;;;;;;5060296;28;20188;-74
2023/07/28 06:59:07;;;;;;;6.30;4.17;;;18.60;99.90;;;;;;5061229;28;20180;-70
2023/07/28 07:01:33;;;;;;;6.80;4.40;;;18.70;99.90;;;;;;5058611;28;20257;-75
2023/07/28 07:03:59;;;;;;;5.13;4.63;;;19.10;99.90;;;;;;5063269;28;20470;-75
2023/07/28 07:06:25;;;;;;;5.43;4.10;;;19.30;99.90;;;;;;5064647;28;20411;-75
2023/07/28 07:08:50;;;;;;;3.67;3.37;;;19.40;99.90;;;;;;5067026;28;20834;-72
2023/07/28 07:11:16;;;;;;;4.13;3.83;;;19.50;99.90;;;;;;5070621;28;20212;-75
2023/07/28 07:13:42;;;;;;;4.27;3.97;;;19.50;99.90;;;;;;5060377;28;20573;-74
2023/07/28 07:16:17;;;;;;;5.20;3.87;;;19.50;99.90;;;;;;5077630;28;20190;-74
2023/07/28 07:18:45;;;;;;;3.93;3.63;;;19.60;99.90;;;;;;5071726;28;20263;-75
2023/07/28 07:21:11;;;;;;;3.80;3.40;;;19.70;99.90;;;;;;5060031;28;21006;-73
2023/07/28 07:23:37;;;;;;;3.60;3.30;;;19.70;99.90;;;;;;5076978;28;20591;-75
2023/07/28 07:26:03;;;;;;;4.90;4.50;;;19.60;99.90;;;;;;5076134;28;20193;-74
2023/07/28 07:28:28;;;;;;;5.13;4.70;;;19.50;99.90;;;;;;5065808;28;20407;-75
2023/07/28 07:30:57;;;;;;;5.10;4.70;;;19.40;99.90;;;;;;5069357;28;20408;-75
2023/07/28 07:33:23;;;;;;;5.80;5.30;;;19.50;99.90;;;;;;5048943;28;20170;-75
2023/07/28 07:35:49;;;;;;;5.47;4.97;;;19.60;99.90;;;;;;5067624;28;20443;-75
2023/07/28 07:38:14;;;;;;;4.20;3.70;;;19.70;99.90;;;;;;5068666;28;20411;-75
2023/07/28 07:40:40;;;;;;;5.20;4.70;;;19.70;99.90;;;;;;5046447;28;20178;-75
2023/07/28 07:43:06;;;;;;;5.40;4.63;;;19.80;99.90;;;;;;5070123;28;20577;-76
2023/07/28 07:45:31;;;;;;;3.87;3.20;;;19.90;99.90;;;;;;5075098;28;20185;-74
2023/07/28 07:47:58;;;;;;;3.80;3.50;;;19.80;99.90;;;;;;5048955;28;20186;-73
2023/07/28 07:50:24;;;;;;;4.27;3.40;;;19.80;99.90;;;;;;5070862;28;20309;-72
2023/07/28 07:52:50;;;;;;;7.33;5.97;;;20.00;99.90;;;;;;5068835;28;20592;-72
2023/07/28 07:55:15;;;;;;;5.73;4.70;;;20.10;99.90;;;;;;5073963;28;20254;-73
2023/07/28 07:57:41;;;;;;;3.60;3.30;;;20.70;99.90;;;;;;5072514;28;20254;-71
2023/07/28 08:00:08;;;;;;;4.00;2.70;;;21.00;99.90;;;;;;5064281;28;20176;-72
2023/07/28 08:02:34;;;;;;;4.37;3.50;;;21.10;99.90;;;;;;5071026;28;20170;-73
2023/07/28 08:05:00;;;;;;;2.33;2.20;;;21.20;99.90;;;;;;5065507;28;20477;-73
2023/07/28 08:07:25;;;;;;;4.23;3.00;;;21.10;99.90;;;;;;5066740;28;20513;-71
2023/07/28 08:09:51;;;;;;;2.63;2.40;;;22.20;99.90;;;;;;5073566;28;20176;-72
2023/07/28 08:12:17;;;;;;;1.70;1.60;;;22.60;99.90;;;;;;5072748;28;20175;-72
2023/07/28 08:14:45;;;;;;;2.50;2.30;;;22.40;99.90;;;;;;5057542;28;20198;-72
2023/07/28 08:17:11;;;;;;;1.90;1.80;;;22.20;99.90;;;;;;5066112;28;20419;-72
2023/07/28 08:19:37;;;;;;;2.00;1.80;;;22.50;99.90;;;;;;5063859;28;20833;-71
2023/07/28 08:22:03;;;;;;;1.80;1.70;;;22.60;99.90;;;;;;5069005;28;20856;-71
2023/07/28 08:24:29;;;;;;;3.37;3.07;;;22.40;99.90;;;;;;5066612;28;20256;-73
2023/07/28 08:26:55;;;;;;;4.07;1.90;;;22.50;99.90;;;;;;5069991;28;20483;-70
2023/07/28 08:29:20;;;;;;;1.93;1.83;;;22.10;99.90;;;;;;5070498;28;20449;-70
2023/07/28 08:31:46;;;;;;;2.40;2.03;;;21.70;99.90;;;;;;5068410;28;20170;-73
2023/07/28 08:34:12;;;;;;;2.30;2.10;;;21.60;99.90;;;;;;5068561;28;20344;-72
2023/07/28 08:36:38;;;;;;;2.00;1.90;;;21.70;99.90;;;;;;5070795;28;20885;-71
2023/07/28 08:39:04;;;;;;;2.20;2.00;;;21.70;99.90;;;;;;5066550;28;20619;-73
2023/07/28 08:41:30;;;;;;;3.50;1.90;;;21.40;99.90;;;;;;5067649;28;20409;-75
2023/07/28 08:43:57;;;;;;;1.83;1.57;;;21.50;99.90;;;;;;5068579;28;20493;-73
2023/07/28 08:46:23;;;;;;;2.60;2.40;;;21.60;99.90;;;;;;5064248;28;20564;-71
2023/07/28 08:48:49;;;;;;;5.00;4.50;;;21.70;99.90;;;;;;5067885;28;20506;-71
2023/07/28 08:51:14;;;;;;;1.70;1.60;;;22.10;99.90;;;;;;5064256;28;20460;-73
2023/07/28 08:53:40;;;;;;;1.70;1.60;;;21.80;99.90;;;;;;5060174;28;20421;-73
2023/07/28 08:56:06;;;;;;;6.97;3.63;;;21.90;99.90;;;;;;5068217;28;20276;-72
2023/07/28 08:58:32;;;;;;;1.80;1.40;;;22.00;99.90;;;;;;5065488;28;20420;-75
2023/07/28 09:01:02;;;;;;;8.57;7.77;;;21.90;99.90;;;;;;5060548;28;20720;-71
2023/07/28 09:03:28;;;;;;;4.53;4.13;;;21.80;99.90;;;;;;5067714;28;20924;-71
2023/07/28 09:06:02;;;;;;;2.50;1.57;;;21.90;99.90;;;;;;5070169;28;20466;-71
2023/07/28 09:08:30;;;;;;;1.50;1.40;;;21.60;99.90;;;;;;5056233;28;20417;-71
2023/07/28 09:10:55;;;;;;;2.20;1.53;;;21.60;99.90;;;;;;5071327;28;20428;-71
2023/07/28 09:13:21;;;;;;;1.50;1.40;;;21.40;99.90;;;;;;5063510;28;20416;-71
2023/07/28 09:15:47;;;;;;;1.77;1.67;;;21.60;99.90;;;;;;5059800;28;20197;-70
2023/07/28 09:18:16;;;;;;;1.57;1.40;;;21.80;99.90;;;;;;5063204;28;20228;-70
2023/07/28 09:20:42;;;;;;;1.50;1.37;;;22.00;99.90;;;;;;5045258;28;20916;-71
2023/07/28 09:23:08;;;;;;;1.60;1.50;;;21.70;99.90;;;;;;5061967;28;20888;-71
2023/07/28 09:25:37;;;;;;;1.60;1.50;;;21.80;99.90;;;;;;5063605;28;20516;-70
2023/07/28 09:28:03;;;;;;;1.40;1.30;;;21.40;99.90;;;;;;5070884;28;20430;-74
2023/07/28 09:30:45;;;;;;;1.90;1.80;;;21.00;99.90;;;;;;5057032;28;20451;-74
2023/07/28 09:33:11;;;;;;;2.30;1.73;;;20.30;99.90;;;;;;5066715;28;20405;-73
2023/07/28 09:35:50;;;;;;;2.50;2.20;;;20.40;99.90;;;;;;5061075;28;20438;-75
2023/07/28 09:38:16;;;;;;;4.10;1.80;;;20.50;99.90;;;;;;5066472;28;20533;-75
2023/07/28 09:40:43;;;;;;;1.90;1.70;;;20.90;99.90;;;;;;5071579;28;20771;-74
2023/07/28 09:43:10;;;;;;;3.47;1.43;;;21.20;99.90;;;;;;5063309;28;20505;-75
2023/07/28 09:45:36;;;;;;;1.80;1.70;;;21.50;99.90;;;;;;5070739;28;20778;-74
2023/07/28 09:48:04;;;;;;;2.50;1.67;;;21.70;99.90;;;;;;5063329;28;20411;-74
2023/07/28 09:50:34;;;;;;;1.53;1.43;;;21.80;99.90;;;;;;5063606;28;20446;-74
2023/07/28 09:53:03;;;;;;;3.53;2.30;;;21.60;99.90;;;;;;5066586;28;20834;-74
2023/07/28 09:55:29;;;;;;;5.43;2.27;;;21.40;99.90;;;;;;5063166;28;20436;-76
2023/07/28 09:57:57;;;;;;;1.83;1.73;;;21.20;99.90;;;;;;5071303;28;20422;-75
2023/07/28 10:00:23;;;;;;;1.70;1.60;;;21.50;99.90;;;;;;5048176;28;20502;-75
2023/07/28 10:02:53;;;;;;;6.10;2.03;;;21.90;99.90;;;;;;5065471;28;20409;-75
2023/07/28 10:05:19;;;;;;;1.50;1.40;;;21.90;99.90;;;;;;5067170;28;20851;-75
2023/07/28 10:07:46;;;;;;;2.20;1.70;;;21.90;99.90;;;;;;5069389;28;20710;-75
2023/07/28 10:10:13;;;;;;;1.70;1.60;;;21.70;99.90;;;;;;5079488;28;20419;-75
2023/07/28 10:12:59;;;;;;;3.73;3.37;;;21.40;99.90;;;;;;5063829;28;20408;-71
2023/07/28 10:15:30;;;;;;;1.83;1.70;;;21.50;99.90;;;;;;5069096;28;20442;-74
2023/07/28 10:18:00;;;;;;;2.00;1.67;;;21.20;99.90;;;;;;5071282;28;20410;-74
2023/07/28 10:20:35;;;;;;;1.97;1.77;;;21.30;99.90;;;;;;5057758;28;20414;-74
2023/07/28 10:23:07;;;;;;;2.53;1.60;;;21.40;99.90;;;;;;5037634;28;20531;-74
2023/07/28 10:25:37;;;;;;;1.60;1.50;;;21.70;99.90;;;;;;5068224;28;20479;-75
2023/07/28 10:28:08;;;;;;;2.90;2.00;;;22.20;99.90;;;;;;5062347;28;20419;-74
2023/07/28 10:30:54;;;;;;;3.90;1.97;;;21.60;99.90;;;;;;5062892;28;20508;-74
2023/07/28 10:33:36;;;;;;;1.70;1.60;;;21.20;99.90;;;;;;5070155;28;20409;-75
2023/07/28 10:36:17;;;;;;;2.53;1.90;;;21.70;99.90;;;;;;5073051;28;20408;-74
2023/07/28 10:38:43;;;;;;;1.77;1.67;;;21.80;99.90;;;;;;5066756;28;20398;-74
2023/07/28 10:41:18;;;;;;;2.10;1.90;;;21.50;99.90;;;;;;5075670;28;20441;-76
2023/07/28 10:43:45;;;;;;;2.90;2.70;;;21.20;99.90;;;;;;5047224;28;20467;-75
2023/07/28 10:46:17;;;;;;;1.70;1.60;;;21.40;99.90;;;;;;5070891;28;20408;-75
2023/07/28 10:48:45;;;;;;;1.93;1.83;;;21.80;99.90;;;;;;5083141;28;20427;-75
2023/07/28 10:51:11;;;;;;;1.60;1.50;;;22.00;99.90;;;;;;5061846;28;20462;-75
2023/07/28 10:53:37;;;;;;;2.80;1.67;;;21.80;99.90;;;;;;5057646;28;20431;-74
2023/07/28 10:56:04;;;;;;;1.87;1.77;;;21.60;99.90;;;;;;5070887;28;20496;-75
2023/07/28 10:58:31;;;;;;;2.23;2.03;;;21.80;99.90;;;;;;5075510;28;20415;-74
2023/07/28 11:00:57;;;;;;;3.63;2.60;;;21.50;99.90;;;;;;5076059;28;20431;-74
2023/07/28 11:03:22;;;;;;;1.70;1.60;;;21.00;99.90;;;;;;5070607;28;20410;-75
2023/07/28 11:05:49;;;;;;;2.70;2.50;;;20.80;99.90;;;;;;5068628;28;20189;-75
2023/07/28 11:08:15;;;;;;;1.90;1.80;;;20.50;99.90;;;;;;5067558;28;20487;-73
2023/07/28 11:10:41;;;;;;;1.87;1.67;;;20.60;99.90;;;;;;5069370;28;20407;-74
2023/07/28 11:13:07;;;;;;;1.30;1.20;;;20.90;99.90;;;;;;5069637;28;20252;-72
2023/07/28 11:15:33;;;;;;;1.67;1.57;;;20.70;99.90;;;;;;5069082;28;20953;-73
2023/07/28 11:17:59;;;;;;;1.73;1.63;;;20.80;99.90;;;;;;5052208;28;20546;-75
2023/07/28 11:20:30;;;;;;;1.40;1.30;;;20.40;99.90;;;;;;5064313;28;20186;-76
2023/07/28 11:22:59;;;;;;;2.63;1.60;;;20.20;99.90;;;;;;5064677;28;20454;-74
2023/07/28 11:25:27;;;;;;;2.13;1.80;;;19.80;99.90;;;;;;5053691;28;20617;-73
2023/07/28 11:27:53;;;;;;;2.33;1.90;;;19.50;99.90;;;;;;5069769;28;20414;-74
2023/07/28 11:30:19;;;;;;;2.40;1.90;;;19.50;99.90;;;;;;5061754;28;20413;-74
2023/07/28 11:32:48;;;;;;;1.80;1.70;;;19.50;99.90;;;;;;5067809;28;20776;-73
2023/07/28 11:35:16;;;;;;;1.97;1.87;;;19.70;99.90;;;;;;5067809;28;20768;-73
2023/07/28 11:37:43;;;;;;;3.90;1.80;;;19.50;99.90;;;;;;5063127;28;20498;-73
2023/07/28 11:40:11;;;;;;;3.30;1.63;;;19.60;99.90;;;;;;5069004;28;20577;-74
2023/07/28 11:42:44;;;;;;;2.13;1.70;;;19.60;99.90;;;;;;5061400;28;20511;-74
2023/07/28 11:45:12;;;;;;;2.20;2.00;;;19.50;99.90;;;;;;5068723;28;20468;-75
2023/07/28 11:47:38;;;;;;;2.87;1.73;;;19.60;99.90;;;;;;5065725;28;20895;-75
2023/07/28 11:50:04;;;;;;;1.90;1.70;;;19.80;99.90;;;;;;5064030;28;20402;-74
2023/07/28 11:52:34;;;;;;;4.20;1.90;;;19.90;99.90;;;;;;5066761;28;20159;-74
2023/07/28 11:55:02;;;;;;;2.60;2.40;;;20.30;99.90;;;;;;5065617;28;20446;-74
2023/07/28 11:57:30;;;;;;;2.20;2.10;;;20.50;99.90;;;;;;5069143;28;20424;-74
2023/07/28 11:59:56;;;;;;;2.10;1.87;;;20.50;99.90;;;;;;5065839;28;20408;-74
2023/07/28 12:02:31;;;;;;;6.83;3.40;;;20.70;99.90;;;;;;5068133;28;20957;-74
2023/07/28 12:04:58;;;;;;;3.13;1.80;;;20.70;99.90;;;;;;5065044;28;20479;-74
2023/07/28 12:07:33;;;;;;;2.03;1.93;;;20.50;99.90;;;;;;5067209;28;20396;-74
2023/07/28 12:10:12;;;;;;;1.87;1.77;;;20.50;99.90;;;;;;5071686;28;20486;-75
2023/07/28 12:12:46;;;;;;;1.77;1.67;;;20.60;99.90;;;;;;5073439;28;20411;-75
2023/07/28 12:15:30;;;;;;;1.80;1.70;;;20.80;99.90;;;;;;5072923;28;20441;-73
2023/07/28 12:18:06;;;;;;;2.03;1.83;;;20.80;99.90;;;;;;5067715;28;20396;-74
2023/07/28 12:20:39;;;;;;;2.27;1.20;;;20.80;99.90;;;;;;5065036;28;20574;-74
2023/07/28 12:23:06;;;;;;;2.03;1.87;;;20.70;99.90;;;;;;5071045;28;20903;-74
2023/07/28 12:25:32;;;;;;;1.67;1.57;;;20.70;99.90;;;;;;5064092;28;20463;-74
2023/07/28 12:27:58;;;;;;;1.10;1.00;;;20.60;99.90;;;;;;5070721;28;20547;-75
2023/07/28 12:30:24;;;;;;;1.93;1.83;;;20.70;99.90;;;;;;5072677;28;20880;-75
2023/07/28 12:32:50;;;;;;;2.23;1.53;;;20.60;99.90;;;;;;5080828;28;20454;-75
2023/07/28 12:35:16;;;;;;;3.23;1.30;;;20.70;99.90;;;;;;5068551;28;20196;-75
2023/07/28 12:37:41;;;;;;;1.80;1.70;;;20.40;99.90;;;;;;5075855;28;20179;-75
2023/07/28 12:40:08;;;;;;;1.60;1.50;;;20.60;99.90;;;;;;5072194;28;20193;-75
2023/07/28 12:42:34;;;;;;;1.70;1.60;;;20.60;99.90;;;;;;5068824;28;20261;-76
2023/07/28 12:44:59;;;;;;;1.40;1.30;;;20.50;99.90;;;;;;5072160;28;20541;-74